createdAt,value
2017-07-14T00:01:49.511Z,23.83
2017-07-14T00:04:17.074Z,23.87
2017-07-14T00:06:44.624Z,23.88
2017-07-14T00:09:12.156Z,23.84
2017-07-14T00:11:39.716Z,23.85
2017-07-14T00:14:07.236Z,23.84
2017-07-14T00:16:34.847Z,23.81
2017-07-14T00:19:02.389Z,23.78
2017-07-14T00:21:29.901Z,23.73
2017-07-14T00:23:57.459Z,23.82
2017-07-14T00:26:25.083Z,23.84
2017-07-14T00:28:52.613Z,23.88
2017-07-14T00:31:20.202Z,23.88
2017-07-14T00:33:47.761Z,23.80
2017-07-14T00:36:15.323Z,23.78
2017-07-14T00:38:42.836Z,23.68
2017-07-14T00:41:10.440Z,23.55
2017-07-14T00:43:37.997Z,23.52
2017-07-14T00:46:05.516Z,23.68
2017-07-14T00:48:33.120Z,23.71
2017-07-14T00:51:00.633Z,23.65
2017-07-14T00:53:28.150Z,23.60
2017-07-14T00:55:55.708Z,23.69
2017-07-14T00:58:23.219Z,23.74
2017-07-14T01:00:50.795Z,23.77
2017-07-14T01:03:18.377Z,23.81
2017-07-14T01:05:45.936Z,23.80
2017-07-14T01:08:13.477Z,23.71
2017-07-14T01:10:40.989Z,23.71
2017-07-14T01:13:08.546Z,23.42
2017-07-14T01:15:36.086Z,23.44
2017-07-14T01:18:03.599Z,23.66
2017-07-14T01:20:31.152Z,23.71
2017-07-14T01:22:58.668Z,23.68
2017-07-14T01:25:26.221Z,23.68
2017-07-14T01:27:53.741Z,23.75
2017-07-14T01:30:21.257Z,23.74
2017-07-14T01:32:48.807Z,23.78
2017-07-14T01:35:16.315Z,23.63
2017-07-14T01:37:43.879Z,23.59
2017-07-14T01:40:11.415Z,23.66
2017-07-14T01:42:38.926Z,23.68
2017-07-14T01:45:06.474Z,23.70
2017-07-14T01:47:34.057Z,23.67
2017-07-14T01:50:01.647Z,23.63
2017-07-14T01:52:29.196Z,23.72
2017-07-14T01:54:56.756Z,23.74
2017-07-14T01:57:24.301Z,23.76
2017-07-14T01:59:51.820Z,23.72
2017-07-14T02:02:19.388Z,23.62
2017-07-14T02:04:46.935Z,23.63
2017-07-14T02:07:14.445Z,23.68
2017-07-14T02:09:41.997Z,23.51
2017-07-14T02:12:09.517Z,23.44
2017-07-14T02:14:37.121Z,23.57
2017-07-14T02:17:04.677Z,23.66
2017-07-14T02:19:32.191Z,23.63
2017-07-14T02:21:59.754Z,23.64
2017-07-14T02:24:27.286Z,23.70
2017-07-14T02:26:54.802Z,23.66
2017-07-14T02:29:22.349Z,23.66
2017-07-14T02:31:49.947Z,23.59
2017-07-14T02:34:17.609Z,23.61
2017-07-14T02:36:45.123Z,23.65
2017-07-14T02:39:12.715Z,23.61
2017-07-14T02:41:40.270Z,23.65
2017-07-14T02:44:07.781Z,23.67
2017-07-14T02:46:35.332Z,23.66
2017-07-14T02:49:02.848Z,23.65
2017-07-14T02:51:30.360Z,23.65
2017-07-14T02:53:57.914Z,23.65
2017-07-14T02:56:25.424Z,23.63
2017-07-14T02:58:52.980Z,23.65
2017-07-14T03:01:20.494Z,23.65
2017-07-14T03:03:48.130Z,23.60
2017-07-14T03:06:15.785Z,23.65
2017-07-14T03:08:43.302Z,23.68
2017-07-14T03:11:10.860Z,23.63
2017-07-14T03:13:38.394Z,23.48
2017-07-14T03:16:05.910Z,23.25
2017-07-14T03:18:33.461Z,23.26
2017-07-14T03:21:00.975Z,23.43
2017-07-14T03:23:28.598Z,23.52
2017-07-14T03:25:56.158Z,23.56
2017-07-14T03:28:23.669Z,23.55
2017-07-14T03:30:51.211Z,23.51
2017-07-14T03:33:18.732Z,23.50
2017-07-14T03:35:46.298Z,23.54
2017-07-14T03:38:13.814Z,23.52
2017-07-14T03:40:41.415Z,23.52
2017-07-14T03:43:08.965Z,23.54
2017-07-14T03:45:36.482Z,23.54
2017-07-14T03:48:04.120Z,23.56
2017-07-14T03:50:31.705Z,23.57
2017-07-14T03:52:59.229Z,23.54
2017-07-14T03:55:26.797Z,23.52
2017-07-14T03:57:54.316Z,23.57
2017-07-14T04:00:21.881Z,23.55
2017-07-14T04:02:49.389Z,23.58
2017-07-14T04:05:16.905Z,23.57
2017-07-14T04:07:44.455Z,23.68
2017-07-14T04:10:12.002Z,23.60
2017-07-14T04:12:39.578Z,23.58
2017-07-14T04:15:07.160Z,23.72
2017-07-14T04:17:34.681Z,23.69
2017-07-14T04:20:02.332Z,23.63
2017-07-14T04:22:29.850Z,23.59
2017-07-14T04:24:57.412Z,23.62
2017-07-14T04:27:24.929Z,23.66
2017-07-14T04:29:52.454Z,23.66
2017-07-14T04:32:20.005Z,23.81
2017-07-14T04:34:47.525Z,23.78
2017-07-14T04:37:15.104Z,23.78
2017-07-14T04:39:42.655Z,23.76
2017-07-14T04:42:10.181Z,23.77
2017-07-14T04:44:37.733Z,23.77
2017-07-14T04:47:05.304Z,23.79
2017-07-14T04:49:32.874Z,23.87
2017-07-14T04:52:00.388Z,23.84
2017-07-14T04:54:27.910Z,23.79
2017-07-14T04:56:55.469Z,23.84
2017-07-14T04:59:22.995Z,23.84
2017-07-14T05:01:50.566Z,23.80
2017-07-14T05:04:18.092Z,23.84
2017-07-14T05:06:45.617Z,23.86
2017-07-14T05:09:13.173Z,23.85
2017-07-14T05:11:40.693Z,23.82
2017-07-14T05:14:08.269Z,23.82
2017-07-14T05:16:35.829Z,23.82
2017-07-14T05:19:03.388Z,23.81
2017-07-14T05:21:31.050Z,23.79
2017-07-14T05:23:58.566Z,23.79
2017-07-14T05:26:26.123Z,23.81
2017-07-14T05:28:53.646Z,23.81
2017-07-14T05:31:21.170Z,23.83
2017-07-14T05:33:48.722Z,23.83
2017-07-14T05:36:16.240Z,23.81
2017-07-14T05:38:43.792Z,23.80
2017-07-14T05:41:11.309Z,23.80
2017-07-14T05:43:38.887Z,23.79
2017-07-14T05:46:06.433Z,23.81
2017-07-14T05:48:33.945Z,23.81
2017-07-14T05:51:01.494Z,23.79
2017-07-14T05:53:29.019Z,23.82
2017-07-14T05:55:56.579Z,23.82
2017-07-14T05:58:24.122Z,23.83
2017-07-14T06:00:51.629Z,23.83
2017-07-14T06:03:19.185Z,23.82
2017-07-14T06:05:46.705Z,23.84
2017-07-14T06:08:14.226Z,23.84
2017-07-14T06:10:41.777Z,23.86
2017-07-14T06:13:09.295Z,23.84
2017-07-14T06:15:36.848Z,23.83
2017-07-14T06:18:04.413Z,23.84
2017-07-14T06:20:32.074Z,23.82
2017-07-14T06:22:59.591Z,23.83
2017-07-14T06:25:27.192Z,23.82
2017-07-14T06:27:54.737Z,23.84
2017-07-14T06:30:22.249Z,23.83
2017-07-14T06:32:49.806Z,23.85
2017-07-14T06:35:17.343Z,23.85
2017-07-14T06:37:44.864Z,23.85
2017-07-14T06:40:12.420Z,23.84
2017-07-14T06:42:39.933Z,23.82
2017-07-14T06:45:07.569Z,23.84
2017-07-14T06:47:35.087Z,23.87
2017-07-14T06:50:02.688Z,23.87
2017-07-14T06:52:30.266Z,23.85
2017-07-14T06:54:57.809Z,23.85
2017-07-14T06:57:25.355Z,23.85
2017-07-14T06:59:52.930Z,23.85
2017-07-14T07:02:20.441Z,23.87
2017-07-14T07:04:47.957Z,23.85
2017-07-14T07:07:15.531Z,23.86
2017-07-14T07:09:43.063Z,23.85
2017-07-14T07:12:10.601Z,23.87
2017-07-14T07:14:38.183Z,23.88
2017-07-14T07:17:05.698Z,23.90
2017-07-14T07:19:33.213Z,23.88
2017-07-14T07:22:00.756Z,23.87
2017-07-14T07:24:28.321Z,23.89
2017-07-14T07:26:55.848Z,23.88
2017-07-14T07:29:23.423Z,23.87
2017-07-14T07:31:50.946Z,23.87
2017-07-14T07:34:18.463Z,23.85
2017-07-14T07:36:46.029Z,23.89
2017-07-14T07:39:13.539Z,23.89
2017-07-14T07:41:41.052Z,23.89
2017-07-14T07:44:08.616Z,23.89
2017-07-14T07:46:52.748Z,23.87
2017-07-14T07:49:25.293Z,23.87
2017-07-14T07:51:52.810Z,23.87
2017-07-14T07:54:20.394Z,23.88
2017-07-14T07:56:47.952Z,23.87
2017-07-14T07:59:15.468Z,23.87
2017-07-14T08:01:42.990Z,23.88
2017-07-14T08:04:10.575Z,23.88
2017-07-14T08:06:38.092Z,23.89
2017-07-14T08:09:05.605Z,23.90
2017-07-14T08:11:33.159Z,23.88
2017-07-14T08:14:00.686Z,23.85
2017-07-14T08:16:28.205Z,23.88
2017-07-14T08:18:55.760Z,23.89
2017-07-14T08:21:23.283Z,23.88
2017-07-14T08:23:50.851Z,23.88
2017-07-14T08:26:18.420Z,23.84
2017-07-14T08:28:45.929Z,23.87
2017-07-14T08:31:13.443Z,23.88
2017-07-14T08:33:41.012Z,23.86
2017-07-14T08:36:08.537Z,23.87
2017-07-14T08:38:36.051Z,23.87
2017-07-14T08:41:03.665Z,23.90
2017-07-14T08:43:31.181Z,23.91
2017-07-14T08:45:58.783Z,23.90
2017-07-14T08:48:26.350Z,23.90
2017-07-14T08:50:53.867Z,23.92
2017-07-14T08:53:21.379Z,23.91
2017-07-14T08:55:48.959Z,23.93
2017-07-14T08:58:16.469Z,23.93
2017-07-14T09:00:43.972Z,23.91
2017-07-14T09:03:11.534Z,23.91
2017-07-14T09:05:39.062Z,23.93
2017-07-14T09:08:06.578Z,23.94
2017-07-14T09:10:34.151Z,23.93
2017-07-14T09:13:01.669Z,23.92
2017-07-14T09:15:29.194Z,23.93
2017-07-14T09:17:56.765Z,23.93
2017-07-14T09:20:24.276Z,23.92
2017-07-14T09:22:51.791Z,23.94
2017-07-14T09:25:19.338Z,23.93
2017-07-14T09:27:46.853Z,23.94
2017-07-14T09:30:14.370Z,23.94
2017-07-14T09:32:41.933Z,23.93
2017-07-14T09:35:09.449Z,23.94
2017-07-14T09:37:36.966Z,23.95
2017-07-14T09:40:04.534Z,23.95
2017-07-14T09:42:32.055Z,23.96
2017-07-14T09:44:59.561Z,23.95
2017-07-14T09:47:27.132Z,23.95
2017-07-14T09:49:54.730Z,23.96
2017-07-14T09:52:22.248Z,23.99
2017-07-14T09:54:49.818Z,23.98
2017-07-14T09:57:17.324Z,23.97
2017-07-14T09:59:44.829Z,23.97
2017-07-14T10:02:12.397Z,23.96
2017-07-14T10:04:39.908Z,23.98
2017-07-14T10:07:07.418Z,24.00
2017-07-14T10:09:34.984Z,24.02
2017-07-14T10:12:02.502Z,24.02
2017-07-14T10:14:30.019Z,24.04
2017-07-14T10:16:57.574Z,24.05
2017-07-14T10:19:25.086Z,24.06
2017-07-14T10:21:52.668Z,24.06
2017-07-14T10:24:20.255Z,24.05
2017-07-14T10:26:47.765Z,24.05
2017-07-14T10:29:15.286Z,24.05
2017-07-14T10:31:42.856Z,24.08
2017-07-14T10:34:10.368Z,24.12
2017-07-14T10:36:37.877Z,24.13
2017-07-14T10:39:05.446Z,24.12
2017-07-14T10:41:32.961Z,24.13
2017-07-14T10:44:00.476Z,24.14
2017-07-14T10:46:28.050Z,24.12
2017-07-14T10:48:55.566Z,24.13
2017-07-14T10:51:23.081Z,24.14
2017-07-14T10:53:50.639Z,24.14
2017-07-14T10:56:18.152Z,24.18
2017-07-14T10:58:45.666Z,24.20
2017-07-14T11:01:13.220Z,24.19
2017-07-14T11:03:40.804Z,24.20
2017-07-14T11:06:08.312Z,24.21
2017-07-14T11:08:35.885Z,24.21
2017-07-14T11:11:03.406Z,24.20
2017-07-14T11:13:30.918Z,24.21
2017-07-14T11:15:58.485Z,24.20
2017-07-14T11:18:26.010Z,24.22
2017-07-14T11:20:53.528Z,24.23
2017-07-14T11:23:21.092Z,24.24
2017-07-14T11:25:48.609Z,24.25
2017-07-14T11:28:16.128Z,24.25
2017-07-14T11:30:43.697Z,24.25
2017-07-14T11:33:11.206Z,24.25
2017-07-14T11:35:38.720Z,24.25
2017-07-14T11:38:06.280Z,24.27
2017-07-14T11:40:33.797Z,24.28
2017-07-14T11:43:01.315Z,24.29
2017-07-14T11:45:28.895Z,24.29
2017-07-14T11:47:56.412Z,24.28
2017-07-14T11:50:23.926Z,24.28
2017-07-14T11:52:51.512Z,24.28
2017-07-14T11:55:19.027Z,24.28
2017-07-14T11:57:46.675Z,24.27
2017-07-14T12:00:14.251Z,24.28
2017-07-14T12:02:41.771Z,24.29
2017-07-14T12:05:09.312Z,24.28
2017-07-14T12:07:36.875Z,24.26
2017-07-14T12:10:04.402Z,24.26
2017-07-14T12:12:31.966Z,24.25
2017-07-14T12:14:59.530Z,24.24
2017-07-14T12:17:27.047Z,24.22
2017-07-14T12:19:54.590Z,24.22
2017-07-14T12:22:22.203Z,24.24
2017-07-14T12:24:49.866Z,24.23
2017-07-14T12:27:17.557Z,24.23
2017-07-14T12:29:45.192Z,24.23
2017-07-14T12:32:12.716Z,24.21
2017-07-14T12:34:40.309Z,24.19
2017-07-14T12:37:07.885Z,24.18
2017-07-14T12:39:35.532Z,24.18
2017-07-14T12:42:03.060Z,24.15
2017-07-14T12:44:30.754Z,24.14
2017-07-14T12:46:58.270Z,24.15
2017-07-14T12:49:25.824Z,24.14
2017-07-14T12:51:53.468Z,24.16
2017-07-14T12:54:20.979Z,24.16
2017-07-14T12:56:48.557Z,24.18
2017-07-14T12:59:16.118Z,24.20
2017-07-14T13:01:43.813Z,24.20
2017-07-14T13:04:11.337Z,24.20
2017-07-14T13:06:38.917Z,24.21
2017-07-14T13:09:06.528Z,24.21
2017-07-14T13:11:34.039Z,24.21
2017-07-14T13:14:01.597Z,24.22
2017-07-14T13:16:29.113Z,24.22
2017-07-14T13:18:56.637Z,24.23
2017-07-14T13:21:24.255Z,24.22
2017-07-14T13:23:51.782Z,24.22
2017-07-14T13:26:19.297Z,24.24
2017-07-14T13:28:46.860Z,24.24
2017-07-14T13:31:14.382Z,24.25
2017-07-14T13:33:41.922Z,24.24
2017-07-14T13:36:09.620Z,24.24
2017-07-14T13:38:37.245Z,24.24
2017-07-14T13:41:04.758Z,24.24
2017-07-14T13:43:32.396Z,24.27
2017-07-14T13:45:59.902Z,24.27
2017-07-14T13:48:27.411Z,24.28
2017-07-14T13:50:54.959Z,24.27
2017-07-14T13:53:22.529Z,24.28
2017-07-14T13:55:50.084Z,24.26
2017-07-14T13:58:17.601Z,24.27
2017-07-14T14:00:45.121Z,24.28
2017-07-14T14:03:12.666Z,24.26
2017-07-14T14:05:40.182Z,24.26
2017-07-14T14:08:07.728Z,24.27
2017-07-14T14:10:35.236Z,24.26
2017-07-14T14:13:02.785Z,24.26
2017-07-14T14:15:30.302Z,24.25
2017-07-14T14:17:57.853Z,24.25
2017-07-14T14:20:25.372Z,24.26
2017-07-14T14:22:52.945Z,24.27
2017-07-14T14:25:20.465Z,24.26
2017-07-14T14:27:47.980Z,24.28
2017-07-14T14:30:15.617Z,24.30
2017-07-14T14:32:43.127Z,24.28
2017-07-14T14:35:10.724Z,24.29
2017-07-14T14:37:38.268Z,24.44
2017-07-14T14:40:06.011Z,24.42
2017-07-14T14:42:33.726Z,24.46
2017-07-14T14:45:01.399Z,24.50
2017-07-14T14:47:29.291Z,24.59
2017-07-14T14:49:57.272Z,24.56
2017-07-14T14:52:25.519Z,24.54
2017-07-14T14:54:53.172Z,24.49
2017-07-14T14:57:21.267Z,24.46
2017-07-14T14:59:48.999Z,24.46
2017-07-14T15:02:16.772Z,24.55
2017-07-14T15:04:45.073Z,24.60
2017-07-14T15:07:12.684Z,24.58
2017-07-14T15:09:40.476Z,24.59
2017-07-14T15:12:08.267Z,24.55
2017-07-14T15:14:36.111Z,24.52
2017-07-14T15:17:04.019Z,24.50
2017-07-14T15:19:31.773Z,24.50
2017-07-14T15:21:59.621Z,24.50
2017-07-14T15:24:27.569Z,24.52
2017-07-14T15:26:55.343Z,24.50
2017-07-14T15:29:23.114Z,24.48
2017-07-14T15:31:50.962Z,24.48
2017-07-14T15:34:18.852Z,24.48
2017-07-14T15:36:46.733Z,24.51
2017-07-14T15:39:14.589Z,24.53
2017-07-14T15:41:42.453Z,24.56
2017-07-14T15:44:10.283Z,24.57
2017-07-14T15:46:38.071Z,24.59
2017-07-14T15:49:05.911Z,24.61
2017-07-14T15:51:33.555Z,24.63
2017-07-14T15:54:01.253Z,24.63
2017-07-14T15:56:29.234Z,24.64
2017-07-14T15:58:56.943Z,24.65
2017-07-14T16:01:24.599Z,24.65
2017-07-14T16:03:52.419Z,24.65
2017-07-14T16:06:20.214Z,24.65
2017-07-14T16:08:47.946Z,24.66
2017-07-14T16:11:15.508Z,24.66
2017-07-14T16:13:43.019Z,24.66
2017-07-14T16:16:10.569Z,24.68
2017-07-14T16:18:38.085Z,24.67
2017-07-14T16:21:05.636Z,24.68
2017-07-14T16:23:33.153Z,24.70
2017-07-14T16:26:00.842Z,24.67
2017-07-14T16:28:28.370Z,24.67
2017-07-14T16:30:55.927Z,24.68
2017-07-14T16:33:23.440Z,24.69
2017-07-14T16:35:50.957Z,24.69
2017-07-14T16:38:18.507Z,24.70
2017-07-14T16:40:46.029Z,24.71
2017-07-14T16:43:13.579Z,24.71
2017-07-14T16:45:45.026Z,24.75
2017-07-14T16:48:12.592Z,24.76
2017-07-14T16:50:40.106Z,24.77
2017-07-14T16:53:07.659Z,24.87
2017-07-14T16:55:35.179Z,24.84
2017-07-14T16:58:02.733Z,24.85
2017-07-14T17:00:31.303Z,24.86
2017-07-14T17:02:58.856Z,24.96
2017-07-14T17:05:26.646Z,24.98
2017-07-14T17:07:54.849Z,25.00
2017-07-14T17:10:23.134Z,24.98
2017-07-14T17:12:50.764Z,25.04
2017-07-14T17:15:18.404Z,25.04
2017-07-14T17:17:46.177Z,25.03
2017-07-14T17:20:14.043Z,25.03
2017-07-14T17:22:41.682Z,25.04
2017-07-14T17:25:09.341Z,25.02
2017-07-14T17:27:37.054Z,25.02
2017-07-14T17:30:04.809Z,25.02
2017-07-14T17:32:32.416Z,25.01
2017-07-14T17:35:00.004Z,25.01
2017-07-14T17:37:27.612Z,25.02
2017-07-14T17:39:55.214Z,25.03
2017-07-14T17:42:23.099Z,25.02
2017-07-14T17:44:51.083Z,25.03
2017-07-14T17:47:18.728Z,25.06
2017-07-14T17:49:46.391Z,25.01
2017-07-14T17:52:14.025Z,25.00
2017-07-14T17:54:41.687Z,24.98
2017-07-14T17:57:09.244Z,24.98
2017-07-14T17:59:37.038Z,24.98
2017-07-14T18:02:04.804Z,24.97
2017-07-14T18:04:32.547Z,24.97
2017-07-14T18:07:00.229Z,24.97
2017-07-14T18:09:27.887Z,24.95
2017-07-14T18:11:55.440Z,24.95
2017-07-14T18:14:23.219Z,24.94
2017-07-14T18:16:50.793Z,24.92
2017-07-14T18:19:18.407Z,24.91
2017-07-14T18:21:46.005Z,24.88
2017-07-14T18:24:13.621Z,24.93
2017-07-14T18:26:41.227Z,24.98
2017-07-14T18:29:09.538Z,25.08
2017-07-14T18:31:37.261Z,25.04
2017-07-14T18:34:05.232Z,25.01
2017-07-14T18:36:33.369Z,24.98
2017-07-14T18:39:01.360Z,25.04
2017-07-14T18:41:29.408Z,25.10
2017-07-14T18:43:57.322Z,25.03
2017-07-14T18:46:25.531Z,25.01
2017-07-14T18:48:53.868Z,25.02
2017-07-14T18:51:22.528Z,25.15
2017-07-14T18:53:51.056Z,25.12
2017-07-14T18:56:19.487Z,25.05
2017-07-14T18:58:48.120Z,25.01
2017-07-14T19:01:16.087Z,24.97
2017-07-14T19:03:44.140Z,24.95
2017-07-14T19:06:12.399Z,24.94
2017-07-14T19:08:40.709Z,24.89
2017-07-14T19:11:08.230Z,24.87
2017-07-14T19:13:35.783Z,24.87
2017-07-14T19:16:03.301Z,24.83
2017-07-14T19:18:30.855Z,24.83
2017-07-14T19:20:58.370Z,24.78
2017-07-14T19:23:25.919Z,24.74
2017-07-14T19:25:53.428Z,24.68
2017-07-14T19:28:20.978Z,24.68
2017-07-14T19:30:48.491Z,24.82
2017-07-14T19:33:16.053Z,24.92
2017-07-14T19:35:43.647Z,24.96
2017-07-14T19:38:11.207Z,24.99
2017-07-14T19:40:38.733Z,24.97
2017-07-14T19:43:06.310Z,24.97
2017-07-14T19:45:33.831Z,24.96
2017-07-14T19:48:01.446Z,24.97
2017-07-14T19:50:28.967Z,24.96
2017-07-14T19:52:56.486Z,24.94
2017-07-14T19:55:24.040Z,24.96
2017-07-14T19:57:52.086Z,24.97
2017-07-14T20:00:19.797Z,24.93
2017-07-14T20:02:47.500Z,24.91
2017-07-14T20:05:15.087Z,24.92
2017-07-14T20:07:42.650Z,25.02
2017-07-14T20:10:10.481Z,24.94
2017-07-14T20:12:38.197Z,24.93
2017-07-14T20:15:05.904Z,24.97
2017-07-14T20:17:33.495Z,24.95
2017-07-14T20:20:01.515Z,24.93
2017-07-14T20:22:29.331Z,24.97
2017-07-14T20:24:57.200Z,24.99
2017-07-14T20:27:25.768Z,25.00
2017-07-14T20:29:53.547Z,25.01
2017-07-14T20:32:21.209Z,25.04
2017-07-14T20:34:48.765Z,25.05
2017-07-14T20:37:16.283Z,25.04
2017-07-14T20:39:44.093Z,25.09
2017-07-14T20:42:12.385Z,25.10
2017-07-14T20:44:40.234Z,25.09
2017-07-14T20:47:08.355Z,25.06
2017-07-14T20:49:36.279Z,25.04
2017-07-14T20:52:04.953Z,25.01
2017-07-14T20:54:32.706Z,25.01
2017-07-14T20:57:01.196Z,24.99
2017-07-14T20:59:29.877Z,24.99
2017-07-14T21:01:58.226Z,24.98
2017-07-14T21:04:26.041Z,24.98
2017-07-14T21:06:53.609Z,24.97
2017-07-14T21:09:21.126Z,24.97
2017-07-14T21:11:48.678Z,24.99
2017-07-14T21:14:16.197Z,25.01
2017-07-14T21:16:43.768Z,25.00
2017-07-14T21:19:11.287Z,24.99
2017-07-14T21:21:38.839Z,24.97
2017-07-14T21:24:06.358Z,25.03
2017-07-14T21:26:34.353Z,25.07
2017-07-14T21:29:01.914Z,25.05
2017-07-14T21:31:29.443Z,25.03
2017-07-14T21:33:56.995Z,25.03
2017-07-14T21:36:24.517Z,24.98
2017-07-14T21:38:52.065Z,24.99
2017-07-14T21:41:19.573Z,24.94
2017-07-14T21:43:47.119Z,24.92
2017-07-14T21:46:14.639Z,24.87
2017-07-14T21:48:42.182Z,24.85
2017-07-14T21:51:09.709Z,24.89
2017-07-14T21:53:37.340Z,24.94
2017-07-14T21:56:04.854Z,24.94
2017-07-14T21:58:32.406Z,24.93
2017-07-14T22:00:59.923Z,24.85
2017-07-14T22:03:27.479Z,24.79
2017-07-14T22:05:54.994Z,24.77
2017-07-14T22:08:22.540Z,24.76
2017-07-14T22:10:50.060Z,24.75
2017-07-14T22:13:17.604Z,24.74
2017-07-14T22:15:45.125Z,24.68
2017-07-14T22:18:12.640Z,24.65
2017-07-14T22:20:40.180Z,24.59
2017-07-14T22:23:07.703Z,24.53
2017-07-14T22:25:35.246Z,24.52
2017-07-14T22:28:02.757Z,24.52
2017-07-14T22:30:30.301Z,24.47
2017-07-14T22:32:57.817Z,24.50
2017-07-14T22:35:25.364Z,24.52
2017-07-14T22:37:52.880Z,24.53
2017-07-14T22:40:20.425Z,24.50
2017-07-14T22:42:47.935Z,24.50
2017-07-14T22:45:15.481Z,24.50
2017-07-14T22:47:43.003Z,24.51
2017-07-14T22:50:10.549Z,24.50
2017-07-14T22:52:38.060Z,24.47
2017-07-14T22:55:05.603Z,24.43
2017-07-14T22:57:33.118Z,24.37
2017-07-14T23:00:00.718Z,24.32
2017-07-14T23:02:28.234Z,24.37
2017-07-14T23:04:55.757Z,24.35
2017-07-14T23:07:23.319Z,24.31
2017-07-14T23:09:50.836Z,24.36
2017-07-14T23:12:18.386Z,24.35
2017-07-14T23:14:45.910Z,24.32
2017-07-14T23:17:13.461Z,24.35
2017-07-14T23:19:40.984Z,24.33
2017-07-14T23:22:08.754Z,24.27
2017-07-14T23:24:36.268Z,24.24
2017-07-14T23:27:03.809Z,24.24
2017-07-14T23:29:31.325Z,24.20
2017-07-14T23:31:58.881Z,24.07
2017-07-14T23:34:26.399Z,24.10
2017-07-14T23:36:53.949Z,24.17
2017-07-14T23:39:21.482Z,24.16
2017-07-14T23:41:49.021Z,24.19
2017-07-14T23:44:16.540Z,24.19
2017-07-14T23:46:44.081Z,24.15
2017-07-14T23:49:11.594Z,24.20
2017-07-14T23:51:39.145Z,24.18
2017-07-14T23:54:06.657Z,24.21
2017-07-14T23:56:34.181Z,24.16
2017-07-14T23:59:01.730Z,24.16
